Curtis Field
KBBD : now visible

Airfield :











YOU CAN JOIN US ON...

 
LOGIN :

Register | Disclaimer

   EN    FR    IT 

 









Legend :    VFR   Marginal VFR   IFR   Intensive IFR   Very Intensive IFR
Visi :
Ceiling :
>= 8 km
>= 3000ft
5 to 8 km
1000 to 3000 ft
1500m to 5 km
500 to 1000 ft
800 to 1500m
200 to 500 ft
< 800m
< 200 ft
Symbols :   Thunderstorms  Fog  Heavy snow  Heavy precipitations  Wind > 20 kt






- Airport Elevation : 1827 ft


KBBD - Curtis Field

CURRENT METAR :
  • 291615Z AUTO 05010G16KT 10SM CLR 24/15 A3020 RMK AO2

EXPIRED METARs :
  • 291555Z AUTO 03012KT 10SM CLR 23/15 A3020 RMK AO2
  • 291535Z AUTO 03013KT 10SM CLR 23/15 A3020 RMK AO2
  • 291515Z AUTO 03013KT 10SM CLR 23/15 A3020 RMK AO2
  • 291455Z AUTO 05013KT 10SM CLR 22/15 A3021 RMK AO2
  • 291435Z AUTO 04012KT 10SM CLR 22/16 A3021 RMK AO2
  • 291415Z AUTO 05012KT 10SM CLR 21/16 A3020 RMK AO2
  • 291355Z AUTO 04009KT 10SM CLR 20/16 A3020 RMK AO2
  • 291335Z AUTO 04011KT 10SM CLR 20/16 A3019 RMK AO2

TAF KBBD
Valid from the 29 at 12:00 until the 30 at 12:00 UTC


291120Z 2912/3012 35007KT P6SM FEW250
FM291500 05009KT P6SM SKC
FM300200 VRB04KT P6SM SKC
KZHU FIR / North America



MET'MAP, your aeronautical weather chart ! - Copyright ORBIFLY December 2007 - Disclaimer

ORBIFLY MET'MAP TEAM :

Programming & Development : Alexandra Zaïnal
Concept & original design : Baudouin d'Aumeries
Assistance for programming : Marc-Olivier Méhu
Technical & hardware support : Manuel Goepfert

Contact : metmap@orbifly.com




SOURCES & CREDITS :

   NOAA       Earth
Advisory